Time;durP1;ratioP1;P1;durP2;ratioP2;P2;SDS_P1;SDS_P2;PMS_P1;PMS_P2;Temp;Humidity;BMP_temperature;BMP_pressure;BME280_temperature;BME280_humidity;BME280_pressure;Samples;Min_cycle;Max_cycle;Signal;HPM_P1;HPM_P2
2024/04/18 00:02:12;;;;;;;4.15;0.90;;;;;;;6.14;69.45;100536.84;5405782;26;20468;-52
2024/04/18 00:04:39;;;;;;;1.88;0.95;;;;;;;6.09;69.85;100542.72;5404613;26;19999;-49
2024/04/18 00:07:07;;;;;;;4.15;0.93;;;;;;;6.08;69.56;100549.53;5404799;26;21895;-48
2024/04/18 00:09:35;;;;;;;4.80;1.45;;;;;;;6.04;69.81;100560.59;5397509;26;19996;-49
2024/04/18 00:12:03;;;;;;;1.88;1.10;;;;;;;5.97;70.22;100564.69;5403832;26;20051;-51
2024/04/18 00:14:30;;;;;;;1.35;0.68;;;;;;;5.94;70.43;100574.91;5406310;26;20014;-50
2024/04/18 00:17:04;;;;;;;1.70;0.60;;;;;;;5.96;70.58;100568.09;5402367;26;20014;-51
2024/04/18 00:19:32;;;;;;;1.45;1.30;;;;;;;6.01;70.31;100578.50;5399818;26;19999;-52
2024/04/18 00:21:59;;;;;;;1.65;0.55;;;;;;;6.00;70.67;100575.06;5404974;26;20058;-51
2024/04/18 00:24:29;;;;;;;5.25;1.10;;;;;;;5.99;70.88;100580.16;5405517;26;20834;-48
2024/04/18 00:26:56;;;;;;;3.13;0.82;;;;;;;5.97;71.57;100579.25;5406484;26;20494;-52
2024/04/18 00:29:28;;;;;;;3.05;2.67;;;;;;;6.01;71.27;100586.22;5409243;26;20003;-47
2024/04/18 00:31:54;;;;;;;6.80;1.20;;;;;;;6.06;70.83;100594.94;5396746;26;20077;-51
2024/04/18 00:34:21;;;;;;;1.25;0.80;;;;;;;6.02;71.33;100590.53;5405869;26;20303;-48
2024/04/18 00:36:48;;;;;;;4.88;1.10;;;;;;;6.01;71.40;100593.94;5407861;26;20014;-49
2024/04/18 00:39:16;;;;;;;4.32;1.02;;;;;;;6.01;71.14;100592.22;5406882;26;20038;-52
2024/04/18 00:41:46;;;;;;;1.95;1.08;;;;;;;5.97;71.76;100602.38;5409142;26;20475;-52
2024/04/18 00:44:13;;;;;;;3.35;1.08;;;;;;;6.01;71.24;100606.81;5408417;26;20019;-50
2024/04/18 00:46:40;;;;;;;1.98;0.52;;;;;;;6.06;70.77;100609.50;5404554;26;20007;-49
2024/04/18 00:49:08;;;;;;;2.38;0.88;;;;;;;5.99;71.42;100599.03;5407735;26;19999;-51
2024/04/18 00:51:35;;;;;;;4.40;0.80;;;;;;;5.94;72.12;100600.59;5408567;26;20000;-49
2024/04/18 00:54:02;;;;;;;5.93;1.55;;;;;;;5.96;71.59;100603.22;5408139;26;20022;-50
2024/04/18 00:56:29;;;;;;;2.88;1.23;;;;;;;5.97;71.35;100613.56;5399168;26;19999;-48
2024/04/18 00:58:58;;;;;;;3.38;0.68;;;;;;;5.94;71.27;100610.03;5404165;26;20447;-49
2024/04/18 01:01:25;;;;;;;4.28;1.10;;;;;;;5.89;71.76;100610.81;5409425;26;20375;-51
2024/04/18 01:03:56;;;;;;;4.32;0.88;;;;;;;5.88;71.81;100616.75;5407669;26;20332;-50
2024/04/18 01:06:23;;;;;;;2.10;1.08;;;;;;;5.90;71.38;100614.22;5407353;26;20391;-52
2024/04/18 01:08:53;;;;;;;2.25;0.68;;;;;;;5.82;71.78;100616.63;5407435;26;20000;-49
2024/04/18 01:11:22;;;;;;;1.33;0.63;;;;;;;5.82;71.57;100621.75;5406840;26;20017;-52
2024/04/18 01:13:49;;;;;;;1.58;0.52;;;;;;;5.75;71.66;100613.00;5396245;26;20011;-49
2024/04/18 01:16:16;;;;;;;3.55;1.15;;;;;;;5.75;71.34;100609.56;5406333;26;19999;-52
2024/04/18 01:18:45;;;;;;;2.60;1.25;;;;;;;5.69;71.56;100604.25;5406572;26;20004;-51
2024/04/18 01:21:12;;;;;;;6.28;1.48;;;;;;;5.64;71.77;100612.72;5412013;26;20019;-50
2024/04/18 01:23:39;;;;;;;7.43;2.30;;;;;;;5.62;71.37;100619.53;5406268;26;20007;-53
2024/04/18 01:26:10;;;;;;;3.22;0.90;;;;;;;5.56;71.60;100619.34;5403728;26;20077;-51
2024/04/18 01:28:37;;;;;;;6.88;0.85;;;;;;;5.54;71.60;100626.13;5405393;26;20005;-51
2024/04/18 01:31:04;;;;;;;2.08;0.77;;;;;;;5.51;71.62;100629.50;5407466;26;20018;-50
2024/04/18 01:33:34;;;;;;;1.92;0.93;;;;;;;5.50;71.75;100625.19;5403711;26;20051;-48
2024/04/18 01:36:01;;;;;;;3.42;0.98;;;;;;;5.45;72.41;100615.63;5403028;26;20016;-48
2024/04/18 01:38:28;;;;;;;2.20;1.10;;;;;;;5.46;72.03;100623.38;5402192;26;20368;-51
2024/04/18 01:40:54;;;;;;;1.63;0.80;;;;;;;5.45;71.90;100620.75;5406833;26;20379;-52
2024/04/18 01:43:21;;;;;;;1.88;1.20;;;;;;;5.37;72.33;100623.13;5407676;26;20012;-51
2024/04/18 01:45:49;;;;;;;1.52;0.57;;;;;;;5.37;72.42;100618.84;5405808;26;20501;-53
2024/04/18 01:48:16;;;;;;;7.78;1.30;;;;;;;5.34;72.24;100623.88;5409215;26;20452;-49
2024/04/18 01:50:43;;;;;;;2.55;0.98;;;;;;;5.30;71.94;100632.34;5409470;26;20460;-49
2024/04/18 01:53:09;;;;;;;2.92;0.55;;;;;;;5.28;72.12;100634.00;5400892;26;20003;-51
2024/04/18 01:55:37;;;;;;;2.15;0.95;;;;;;;5.25;72.15;100644.19;5402572;26;20073;-52
2024/04/18 01:58:04;;;;;;;2.22;1.00;;;;;;;5.21;72.09;100648.38;5411850;26;20410;-50
2024/04/18 02:00:31;;;;;;;3.55;1.35;;;;;;;5.18;72.48;100647.41;5407282;26;20084;-49
2024/04/18 02:02:59;;;;;;;3.47;0.90;;;;;;;5.14;72.67;100657.56;5407799;26;19995;-51
2024/04/18 02:05:30;;;;;;;5.22;1.58;;;;;;;5.10;73.20;100665.16;5405703;26;20010;-48
2024/04/18 02:07:57;;;;;;;5.60;1.15;;;;;;;5.13;72.91;100663.53;5394025;26;20088;-51
2024/04/18 02:10:25;;;;;;;2.83;0.80;;;;;;;5.15;72.47;100668.72;5407167;26;20076;-52
2024/04/18 02:12:51;;;;;;;6.65;1.15;;;;;;;5.12;72.74;100674.66;5407400;26;20032;-52
2024/04/18 02:15:20;;;;;;;1.55;0.85;;;;;;;5.09;72.70;100672.00;5407008;26;20014;-51
2024/04/18 02:17:49;;;;;;;1.90;0.80;;;;;;;5.02;73.65;100677.75;5407248;26;20003;-51
2024/04/18 02:20:15;;;;;;;0.75;0.70;;;;;;;5.03;72.99;100671.78;5409880;26;19995;-48
2024/04/18 02:22:42;;;;;;;2.15;0.85;;;;;;;5.03;73.19;100670.94;5407874;26;20023;-49
2024/04/18 02:25:10;;;;;;;4.78;0.82;;;;;;;5.02;73.26;100675.19;5398593;26;20464;-52
2024/04/18 02:27:38;;;;;;;3.13;0.90;;;;;;;5.03;72.79;100669.22;5406783;26;20642;-51
2024/04/18 02:30:07;;;;;;;4.20;1.10;;;;;;;5.00;72.61;100672.56;5405466;26;20014;-50
2024/04/18 02:32:37;;;;;;;4.35;1.33;;;;;;;4.98;72.60;100679.38;5407154;26;20019;-52
2024/04/18 02:35:04;;;;;;;1.23;0.65;;;;;;;4.94;72.54;100679.22;5405142;26;19995;-50
2024/04/18 02:37:31;;;;;;;2.15;0.93;;;;;;;4.92;72.62;100692.00;5405323;26;20012;-52
2024/04/18 02:39:58;;;;;;;1.98;1.08;;;;;;;4.89;72.47;100687.66;5403962;26;20015;-48
2024/04/18 02:42:25;;;;;;;2.03;0.70;;;;;;;4.86;72.39;100697.84;5400133;26;20015;-49
2024/04/18 02:44:52;;;;;;;8.48;1.38;;;;;;;4.85;72.53;100698.66;5401089;26;20948;-50
2024/04/18 02:47:21;;;;;;;6.50;1.17;;;;;;;4.84;72.30;100704.63;5401158;26;20019;-49
2024/04/18 02:49:47;;;;;;;2.30;0.80;;;;;;;4.78;72.60;100708.66;5402368;26;20444;-48
2024/04/18 02:52:14;;;;;;;2.13;1.58;;;;;;;4.75;72.31;100706.88;5403287;26;20003;-49
2024/04/18 02:54:43;;;;;;;4.55;1.38;;;;;;;4.74;72.31;100707.72;5403574;26;20003;-51
2024/04/18 02:57:10;;;;;;;3.95;1.23;;;;;;;4.67;72.81;100711.78;5403947;26;20468;-48
2024/04/18 02:59:37;;;;;;;2.92;0.82;;;;;;;4.71;72.45;100713.63;5404249;26;20058;-52
2024/04/18 03:02:05;;;;;;;1.60;0.80;;;;;;;4.74;72.49;100708.59;5404092;26;20008;-52
2024/04/18 03:04:32;;;;;;;3.58;0.60;;;;;;;4.73;72.15;100708.53;5402167;26;20007;-53
2024/04/18 03:06:59;;;;;;;5.15;1.42;;;;;;;4.70;72.31;100711.00;5399918;26;20015;-51
2024/04/18 03:09:25;;;;;;;2.10;1.10;;;;;;;4.71;72.25;100707.63;5401655;26;20597;-50
2024/04/18 03:11:54;;;;;;;3.03;1.30;;;;;;;4.69;72.07;100711.84;5400682;26;20019;-52
2024/04/18 03:14:21;;;;;;;4.00;1.30;;;;;;;4.66;72.04;100704.03;5402295;26;20027;-51
2024/04/18 03:16:50;;;;;;;3.55;1.40;;;;;;;4.61;71.82;100707.31;5401267;26;20081;-52
2024/04/18 03:19:17;;;;;;;2.83;1.40;;;;;;;4.56;72.11;100713.97;5396422;26;20007;-53
2024/04/18 03:21:45;;;;;;;2.63;0.85;;;;;;;4.48;72.16;100711.19;5402690;26;19999;-53
2024/04/18 03:24:17;;;;;;;4.70;1.27;;;;;;;4.48;72.27;100710.31;5401917;26;20011;-51
2024/04/18 03:26:45;;;;;;;5.72;0.90;;;;;;;4.44;72.20;100723.84;5402102;26;20018;-51
2024/04/18 03:29:12;;;;;;;3.20;1.20;;;;;;;4.42;72.16;100725.50;5397337;26;20008;-51
2024/04/18 03:31:42;;;;;;;3.22;0.95;;;;;;;4.40;72.09;100734.81;5401636;26;20522;-48
2024/04/18 03:34:09;;;;;;;2.00;1.23;;;;;;;4.39;72.47;100739.06;5397798;26;20006;-48
2024/04/18 03:36:47;;;;;;;4.13;1.45;;;;;;;4.43;72.15;100740.06;5397433;26;20015;-52
2024/04/18 03:39:14;;;;;;;1.67;0.93;;;;;;;4.43;72.68;100732.38;5404338;26;20877;-51
2024/04/18 03:41:41;;;;;;;4.13;0.45;;;;;;;4.46;72.53;100732.47;5397800;26;20416;-49
2024/04/18 03:44:08;;;;;;;3.22;0.90;;;;;;;4.51;72.48;100741.19;5398710;26;20021;-48
2024/04/18 03:46:38;;;;;;;3.97;1.15;;;;;;;4.54;72.05;100741.31;5389580;26;20081;-50
2024/04/18 03:49:07;;;;;;;1.80;0.70;;;;;;;4.55;72.56;100742.16;5400726;26;20014;-49
2024/04/18 03:51:34;;;;;;;4.20;1.50;;;;;;;4.53;72.32;100737.00;5411773;26;20000;-53
2024/04/18 03:54:03;;;;;;;4.55;1.45;;;;;;;4.53;72.22;100738.69;5388713;26;20004;-47
2024/04/18 03:56:30;;;;;;;3.33;1.55;;;;;;;4.48;72.34;100741.97;5403065;26;20003;-51
2024/04/18 03:58:57;;;;;;;3.40;1.40;;;;;;;4.46;72.24;100748.72;5404503;26;20039;-52
2024/04/18 04:01:25;;;;;;;5.00;1.00;;;;;;;4.44;71.98;100755.50;5410850;26;20015;-53
2024/04/18 04:03:52;;;;;;;2.45;0.77;;;;;;;4.41;72.05;100745.16;5403000;26;20011;-51
2024/04/18 04:06:20;;;;;;;3.95;0.98;;;;;;;4.39;71.63;100748.47;5403010;26;20010;-50
2024/04/18 04:08:53;;;;;;;5.53;0.95;;;;;;;4.34;71.93;100758.56;5401198;26;20076;-49
2024/04/18 04:11:21;;;;;;;1.35;0.70;;;;;;;4.30;71.61;100757.63;5418940;26;20030;-52
2024/04/18 04:13:48;;;;;;;2.95;1.30;;;;;;;4.25;71.58;100759.13;5407854;26;20076;-48
2024/04/18 04:16:17;;;;;;;6.60;1.10;;;;;;;4.19;71.70;100764.06;5407270;26;20357;-49
2024/04/18 04:18:44;;;;;;;2.47;1.00;;;;;;;4.14;71.54;100768.13;5405444;26;20010;-53
2024/04/18 04:21:11;;;;;;;1.73;0.70;;;;;;;4.09;71.63;100768.84;5404474;26;20466;-51
2024/04/18 04:23:38;;;;;;;5.68;1.58;;;;;;;4.05;71.53;100768.72;5407162;26;20016;-52
2024/04/18 04:26:05;;;;;;;3.58;0.80;;;;;;;3.99;71.86;100771.91;5407010;26;20509;-51
2024/04/18 04:28:32;;;;;;;2.28;0.98;;;;;;;3.93;71.70;100772.56;5408665;26;19996;-51
2024/04/18 04:30:58;;;;;;;6.28;1.42;;;;;;;3.91;71.78;100771.63;5400548;26;20399;-50
2024/04/18 04:33:27;;;;;;;4.38;1.58;;;;;;;3.86;71.63;100775.72;5409089;26;20021;-48
2024/04/18 04:35:55;;;;;;;2.00;0.98;;;;;;;3.81;71.48;100772.97;5401115;26;20000;-51
2024/04/18 04:38:23;;;;;;;3.10;1.15;;;;;;;3.78;71.63;100778.00;5401929;26;20011;-52
2024/04/18 04:40:51;;;;;;;0.98;0.50;;;;;;;3.69;72.46;100772.53;5403952;26;20015;-53
2024/04/18 04:43:18;;;;;;;6.45;1.05;;;;;;;3.70;71.76;100775.16;5401650;26;20441;-53
2024/04/18 04:45:47;;;;;;;4.45;0.80;;;;;;;3.67;71.94;100784.41;5399681;26;20092;-49
2024/04/18 04:48:15;;;;;;;9.90;1.48;;;;;;;3.65;71.81;100786.91;5400863;26;20018;-48
2024/04/18 04:50:44;;;;;;;5.18;1.20;;;;;;;3.63;71.93;100792.78;5403139;26;20007;-50
2024/04/18 04:53:11;;;;;;;2.75;1.27;;;;;;;3.60;71.92;100794.44;5402664;26;20000;-50
2024/04/18 04:55:37;;;;;;;6.60;1.15;;;;;;;3.58;72.09;100796.06;5405887;26;20460;-49
2024/04/18 04:58:04;;;;;;;5.88;1.00;;;;;;;3.58;71.72;100796.06;5407589;26;20007;-52
2024/04/18 05:00:32;;;;;;;4.22;0.82;;;;;;;3.58;71.76;100801.19;5405744;26;20076;-53
2024/04/18 05:03:03;;;;;;;6.68;1.75;;;;;;;3.57;71.89;100796.88;5406651;26;20000;-52
2024/04/18 05:05:31;;;;;;;2.03;1.00;;;;;;;3.57;71.70;100813.91;5400563;26;20043;-52
2024/04/18 05:07:58;;;;;;;3.70;1.30;;;;;;;3.54;71.59;100814.69;5400923;26;20015;-49
2024/04/18 05:10:25;;;;;;;8.77;1.67;;;;;;;3.52;71.50;100820.56;5401399;26;20650;-49
2024/04/18 05:12:54;;;;;;;6.07;1.25;;;;;;;3.50;71.83;100822.19;5404290;26;20000;-48
2024/04/18 05:15:22;;;;;;;4.55;1.60;;;;;;;3.49;71.46;100825.56;5405422;26;20593;-50
2024/04/18 05:17:50;;;;;;;1.67;0.68;;;;;;;3.46;71.62;100826.31;5390752;26;20039;-50
2024/04/18 05:20:19;;;;;;;2.17;0.80;;;;;;;3.43;71.54;100826.19;5408999;26;20440;-51
2024/04/18 05:22:46;;;;;;;4.82;0.80;;;;;;;3.43;71.90;100831.31;5400883;26;19999;-52
2024/04/18 05:25:12;;;;;;;3.25;1.27;;;;;;;3.43;71.74;100828.75;5404691;26;19999;-54
2024/04/18 05:27:44;;;;;;;7.03;1.48;;;;;;;3.42;71.47;100825.34;5403210;26;20003;-51
2024/04/18 05:33:00;;;;;;;6.47;1.98;;;;;;;3.39;71.42;100824.34;5405471;26;20008;-51
2024/04/18 05:35:30;;;;;;;8.55;1.55;;;;;;;3.38;71.39;100822.59;5403572;26;20095;-51
2024/04/18 05:37:57;;;;;;;2.47;1.60;;;;;;;3.39;71.41;100824.34;5405901;26;20495;-54
2024/04/18 05:40:24;;;;;;;8.63;1.27;;;;;;;3.38;71.63;100817.47;5403107;26;20080;-48
2024/04/18 05:42:51;;;;;;;4.78;1.25;;;;;;;3.38;71.41;100823.44;5397836;26;20006;-49
2024/04/18 05:45:20;;;;;;;4.00;1.42;;;;;;;3.39;71.44;100825.22;5407505;26;20026;-50
2024/04/18 05:47:47;;;;;;;10.32;1.50;;;;;;;3.39;71.58;100827.78;5405063;26;20337;-50
2024/04/18 05:50:18;;;;;;;9.32;1.73;;;;;;;3.40;71.32;100823.50;5413821;26;20032;-52
2024/04/18 05:52:45;;;;;;;4.30;1.25;;;;;;;3.42;71.30;100834.72;5405453;26;20364;-53
2024/04/18 05:55:14;;;;;;;2.85;1.05;;;;;;;3.44;71.39;100843.31;5406811;26;20007;-51
2024/04/18 05:57:44;;;;;;;4.63;1.25;;;;;;;3.45;71.33;100843.38;5408410;26;20331;-54
2024/04/18 06:00:13;;;;;;;5.18;1.13;;;;;;;3.47;71.58;100848.56;5404298;26;20018;-49
2024/04/18 06:02:41;;;;;;;5.80;1.10;;;;;;;3.51;71.30;100859.81;5407433;26;20882;-50
2024/04/18 06:05:09;;;;;;;9.50;2.17;;;;;;;3.53;71.76;100859.06;5405920;26;20011;-50
2024/04/18 06:07:37;;;;;;;11.85;1.63;;;;;;;3.56;71.39;100859.19;5406884;26;20073;-51
2024/04/18 06:10:05;;;;;;;5.40;1.15;;;;;;;3.60;71.33;100861.03;5393059;26;20123;-50
2024/04/18 06:12:36;;;;;;;3.90;1.63;;;;;;;3.64;71.75;100861.16;5406015;26;20645;-53
2024/04/18 06:15:03;;;;;;;;;;;;;;;3.63;72.01;100865.41;5399612;26;20035;-52
2024/04/18 06:17:31;;;;;;;4.45;1.42;;;;;;;3.70;72.06;100866.50;5401938;26;19925;-52
2024/04/18 06:19:58;;;;;;;3.28;1.83;;;;;;;3.75;71.50;100865.00;5406079;26;20023;-51
2024/04/18 06:22:25;;;;;;;6.95;1.27;;;;;;;3.81;71.71;100867.81;5410535;26;20019;-50
2024/04/18 06:24:52;;;;;;;5.80;1.40;;;;;;;3.86;71.65;100868.84;5407272;26;20003;-51
2024/04/18 06:27:19;;;;;;;5.82;1.40;;;;;;;3.92;71.56;100873.31;5404299;26;20317;-52
2024/04/18 06:29:48;;;;;;;4.47;1.40;;;;;;;4.00;71.92;100873.63;5404693;26;20043;-51
2024/04/18 06:32:15;;;;;;;3.70;1.27;;;;;;;4.04;71.98;100872.94;5404821;26;20023;-49
2024/04/18 06:34:42;;;;;;;6.07;1.65;;;;;;;4.11;72.08;100867.22;5399762;26;20359;-54
2024/04/18 06:37:09;;;;;;;6.47;1.65;;;;;;;4.19;71.79;100869.19;5405734;26;20011;-52
2024/04/18 06:39:38;;;;;;;3.50;1.10;;;;;;;4.29;71.89;100872.97;5403693;26;22436;-54
2024/04/18 06:42:05;;;;;;;2.33;1.27;;;;;;;4.37;72.11;100876.69;5398029;26;20463;-49
2024/04/18 06:44:32;;;;;;;2.40;1.88;;;;;;;4.47;72.01;100872.75;5408780;26;20018;-52
2024/04/18 06:47:01;;;;;;;6.43;1.45;;;;;;;4.71;71.72;100877.88;5406707;26;20480;-48
2024/04/18 06:49:30;;;;;;;3.63;1.45;;;;;;;5.06;71.46;100885.03;5408163;26;20016;-56
2024/04/18 06:51:57;;;;;;;6.70;1.50;;;;;;;5.38;71.05;100881.78;5389782;26;20019;-51
2024/04/18 06:54:25;;;;;;;4.63;1.35;;;;;;;5.70;70.65;100884.47;5403519;26;20049;-49
2024/04/18 06:56:52;;;;;;;5.22;1.33;;;;;;;6.00;70.32;100887.91;5410133;26;20038;-48
2024/04/18 06:59:20;;;;;;;6.10;1.60;;;;;;;6.40;69.86;100894.25;5404442;26;20395;-49
2024/04/18 07:01:48;;;;;;;6.43;1.70;;;;;;;7.03;69.64;100890.75;5402136;26;20081;-52
2024/04/18 07:04:17;;;;;;;5.93;1.67;;;;;;;7.50;68.46;100897.03;5404730;26;20000;-50
2024/04/18 07:06:44;;;;;;;5.15;1.95;;;;;;;7.65;67.63;100892.22;5403384;26;20575;-52
2024/04/18 07:09:11;;;;;;;3.85;1.13;;;;;;;7.80;67.50;100901.16;5403379;26;20007;-51
2024/04/18 07:11:39;;;;;;;6.93;1.70;;;;;;;8.02;66.97;100901.63;5404658;26;20015;-50
2024/04/18 07:14:06;;;;;;;4.70;1.23;;;;;;;8.29;67.04;100905.63;5406903;26;20011;-51
2024/04/18 07:16:33;;;;;;;8.75;1.30;;;;;;;8.61;66.52;100908.00;5401397;26;20098;-55
2024/04/18 07:19:00;;;;;;;7.68;1.73;;;;;;;9.06;66.08;100905.38;5401534;26;20081;-53
2024/04/18 07:21:27;;;;;;;4.30;2.55;;;;;;;9.63;65.74;100903.69;5409495;26;20022;-53
2024/04/18 07:23:53;;;;;;;5.57;2.20;;;;;;;10.29;65.11;100910.63;5404385;26;20054;-53
2024/04/18 07:26:24;;;;;;;7.47;1.52;;;;;;;10.91;64.06;100914.78;5402582;26;20039;-50
2024/04/18 07:28:51;;;;;;;7.45;1.50;;;;;;;11.34;62.90;100918.63;5402297;26;20016;-51
2024/04/18 07:31:17;;;;;;;7.60;2.08;;;;;;;11.72;61.68;100915.41;5401831;26;20015;-52
2024/04/18 07:33:44;;;;;;;9.10;2.45;;;;;;;12.03;61.15;100920.78;5402072;26;20081;-55
2024/04/18 07:36:13;;;;;;;3.67;1.40;;;;;;;12.33;60.71;100924.41;5407187;26;20019;-52
2024/04/18 07:38:40;;;;;;;4.00;1.70;;;;;;;12.56;59.93;100921.03;5400923;26;20016;-51
2024/04/18 07:41:07;;;;;;;11.60;1.75;;;;;;;12.79;59.58;100922.84;5391102;26;20004;-53
2024/04/18 07:43:33;;;;;;;5.47;2.05;;;;;;;13.19;59.95;100926.34;5397915;26;20011;-52
2024/04/18 07:46:00;;;;;;;7.38;2.28;;;;;;;13.60;58.94;100928.09;5405703;26;20015;-52
2024/04/18 07:48:27;;;;;;;4.28;2.03;;;;;;;13.83;57.93;100924.59;5403328;26;20022;-55
2024/04/18 07:50:54;;;;;;;10.18;2.30;;;;;;;13.98;56.93;100933.22;5405193;26;20007;-53
2024/04/18 07:53:20;;;;;;;5.65;1.92;;;;;;;14.17;57.11;100927.97;5406303;26;20011;-51
2024/04/18 07:55:48;;;;;;;4.88;1.63;;;;;;;14.36;56.11;100919.19;5397650;26;20000;-50
2024/04/18 07:58:15;;;;;;;6.85;2.40;;;;;;;14.55;55.71;100926.94;5405830;26;20031;-51
2024/04/18 08:00:43;;;;;;;7.97;3.42;;;;;;;14.78;55.88;100928.56;5400757;26;20460;-52
2024/04/18 08:03:14;;;;;;;6.50;1.88;;;;;;;15.16;55.32;100937.88;5403917;26;20088;-54
2024/04/18 08:05:40;;;;;;;6.25;1.98;;;;;;;15.50;54.94;100941.09;5399588;26;20028;-51
2024/04/18 08:08:12;;;;;;;;;;;;;;;15.62;54.87;100943.59;5405787;26;19996;-50
2024/04/18 08:10:45;;;;;;;3.75;1.25;;;;;;;15.93;54.21;100945.91;5391315;26;19942;-50
2024/04/18 08:13:31;;;;;;;6.07;1.90;;;;;;;16.12;53.10;100950.97;5398973;26;20445;-53
2024/04/18 08:16:05;;;;;;;4.30;1.45;;;;;;;16.32;52.78;100950.69;5401455;26;20021;-50
2024/04/18 08:18:33;;;;;;;5.50;1.75;;;;;;;16.61;51.87;100953.84;5398375;26;20096;-54
2024/04/18 08:21:00;;;;;;;2.60;1.88;;;;;;;16.87;51.50;100955.22;5405057;26;20041;-54
2024/04/18 08:23:27;;;;;;;6.35;1.33;;;;;;;16.99;51.22;100958.56;5399312;26;19999;-53
2024/04/18 08:25:54;;;;;;;8.10;1.80;;;;;;;16.51;51.24;100949.63;5393988;26;20419;-53
2024/04/18 08:28:21;;;;;;;6.80;1.75;;;;;;;16.20;51.55;100948.25;5393398;26;20025;-51
2024/04/18 08:30:48;;;;;;;4.03;2.22;;;;;;;16.11;52.32;100954.44;5393590;26;20015;-52
2024/04/18 08:33:15;;;;;;;4.88;1.25;;;;;;;16.50;51.41;100953.97;5405241;26;20020;-53
2024/04/18 08:35:47;;;;;;;3.28;1.52;;;;;;;16.82;50.40;100947.44;5405116;26;20014;-54
2024/04/18 08:38:16;;;;;;;5.03;1.85;;;;;;;17.22;49.78;100942.50;5400367;26;19999;-55
2024/04/18 08:40:44;;;;;;;4.25;1.30;;;;;;;17.54;49.32;100940.25;5400355;26;20069;-55
2024/04/18 08:43:12;;;;;;;3.05;1.10;;;;;;;17.66;49.07;100949.66;5395778;26;20077;-53
2024/04/18 08:45:42;;;;;;;4.85;1.10;;;;;;;17.95;48.29;100941.25;5407932;26;20087;-52
2024/04/18 08:48:10;;;;;;;;;;;;;;;18.27;49.40;100932.81;5400868;26;20004;-52
2024/04/18 08:50:41;;;;;;;3.88;1.00;;;;;;;18.78;47.92;100942.16;5409854;26;19925;-54
2024/04/18 08:53:09;;;;;;;6.57;1.50;;;;;;;18.96;47.21;100940.91;5406690;26;20085;-52
2024/04/18 08:55:37;;;;;;;3.50;1.25;;;;;;;19.07;46.43;100934.53;5395114;26;20333;-52
2024/04/18 08:58:10;;;;;;;3.40;0.98;;;;;;;19.26;45.83;100927.09;5408576;26;20014;-50
2024/04/18 09:00:42;;;;;;;5.75;1.20;;;;;;;19.15;45.08;100929.97;5406930;26;20330;-48
2024/04/18 09:03:10;;;;;;;4.47;1.23;;;;;;;18.72;44.90;100930.09;5405920;26;20007;-50
2024/04/18 09:05:38;;;;;;;5.07;0.85;;;;;;;18.73;45.47;100923.94;5406975;26;20018;-51
2024/04/18 09:08:09;;;;;;;3.65;1.15;;;;;;;18.84;45.18;100925.41;5403945;26;20038;-54
2024/04/18 09:10:36;;;;;;;4.18;0.82;;;;;;;18.60;44.20;100917.22;5408070;26;20080;-49
2024/04/18 09:13:03;;;;;;;2.50;1.15;;;;;;;18.44;44.22;100917.56;5405142;26;20007;-51
2024/04/18 09:15:33;;;;;;;2.78;0.70;;;;;;;18.54;44.60;100922.63;5400401;26;20076;-53
2024/04/18 09:18:06;;;;;;;2.72;1.02;;;;;;;18.72;45.09;100916.97;5407504;26;19999;-51
2024/04/18 09:20:38;;;;;;;2.90;0.80;;;;;;;18.80;43.70;100910.66;5411259;26;20464;-51
2024/04/18 09:23:05;;;;;;;4.93;1.00;;;;;;;18.92;44.16;100912.13;5406032;26;20019;-55
2024/04/18 09:25:34;;;;;;;1.52;0.60;;;;;;;18.86;43.42;100918.38;5406239;26;20018;-53
2024/04/18 09:28:05;;;;;;;5.03;1.17;;;;;;;18.96;44.08;100914.66;5406190;26;20006;-51
2024/04/18 09:30:34;;;;;;;1.90;0.63;;;;;;;18.93;43.72;100913.84;5407896;26;20018;-53
2024/04/18 09:33:02;;;;;;;2.20;0.65;;;;;;;18.72;43.62;100905.59;5408107;26;20000;-53
2024/04/18 09:35:36;;;;;;;3.38;0.65;;;;;;;18.65;43.17;100904.00;5408470;26;20011;-51
2024/04/18 09:38:05;;;;;;;4.38;1.02;;;;;;;18.70;43.10;100903.00;5407527;26;20072;-52
2024/04/18 09:40:44;;;;;;;1.77;0.73;;;;;;;18.66;42.52;100906.59;5398758;26;20038;-52
2024/04/18 09:43:22;;;;;;;4.63;1.85;;;;;;;18.46;43.88;100905.28;5403897;26;20934;-52
2024/04/18 09:45:59;;;;;;;1.90;0.98;;;;;;;18.42;42.96;100898.38;5406304;26;20010;-53
2024/04/18 09:48:29;;;;;;;2.67;1.33;;;;;;;18.11;42.26;100893.78;5406143;26;20046;-52
2024/04/18 09:50:59;;;;;;;2.90;0.60;;;;;;;17.78;42.54;100885.66;5408356;26;20063;-52
2024/04/18 09:53:27;;;;;;;4.57;1.52;;;;;;;17.72;43.74;100887.53;5406893;26;20051;-51
2024/04/18 09:55:56;;;;;;;3.20;0.88;;;;;;;17.85;43.59;100896.00;5406432;26;20011;-51
2024/04/18 09:58:25;;;;;;;2.53;1.10;;;;;;;17.99;44.17;100880.00;5408336;26;20089;-52
2024/04/18 10:00:53;;;;;;;3.17;1.20;;;;;;;18.04;43.47;100893.00;5400193;26;20010;-52
2024/04/18 10:03:20;;;;;;;4.53;1.10;;;;;;;18.20;43.71;100896.22;5404792;26;20089;-48
2024/04/18 10:05:50;;;;;;;5.70;1.10;;;;;;;18.29;42.51;100899.53;5402121;26;20021;-49
2024/04/18 10:08:24;;;;;;;5.57;1.67;;;;;;;18.02;42.49;100891.31;5405050;26;20394;-55
2024/04/18 10:10:52;;;;;;;1.90;0.60;;;;;;;18.05;42.97;100889.50;5401943;26;20003;-48
2024/04/18 10:13:23;;;;;;;4.40;0.82;;;;;;;18.08;42.01;100885.94;5400328;26;20000;-45
2024/04/18 10:16:11;;;;;;;1.33;0.63;;;;;;;17.93;39.87;100887.97;5406555;26;20018;-46
2024/04/18 10:18:39;;;;;;;3.78;1.45;;;;;;;17.42;40.93;100879.34;5406920;26;20003;-49
2024/04/18 10:21:11;;;;;;;3.72;1.02;;;;;;;17.21;41.34;100881.47;5411991;26;20521;-50
2024/04/18 10:24:01;;;;;;;3.80;1.23;;;;;;;17.11;41.82;100884.22;5407950;26;20000;-52
2024/04/18 10:26:32;;;;;;;4.38;1.75;;;;;;;17.21;43.16;100886.69;5404016;26;20440;-45
2024/04/18 10:29:00;;;;;;;2.97;1.00;;;;;;;17.29;42.91;100885.69;5407352;26;20372;-48
2024/04/18 10:31:28;;;;;;;3.92;1.30;;;;;;;17.31;43.00;100887.41;5398874;26;19999;-53
2024/04/18 10:33:56;;;;;;;6.68;1.30;;;;;;;17.25;42.18;100881.41;5393624;26;20773;-44
2024/04/18 10:36:27;;;;;;;3.67;1.58;;;;;;;17.13;43.05;100885.09;5406107;26;19999;-45
2024/04/18 10:38:53;;;;;;;3.47;1.10;;;;;;;17.30;43.38;100875.19;5404274;26;20635;-55
2024/04/18 10:41:22;;;;;;;2.45;1.13;;;;;;;17.30;41.79;100879.56;5392606;26;20004;-55
2024/04/18 10:43:49;;;;;;;8.30;2.35;;;;;;;17.21;42.27;100878.84;5405312;26;20003;-52
2024/04/18 10:46:18;;;;;;;3.05;0.70;;;;;;;17.23;42.94;100870.09;5405164;26;20003;-53
2024/04/18 10:48:50;;;;;;;3.83;0.93;;;;;;;17.19;42.42;100867.53;5406865;26;20003;-49
2024/04/18 10:51:17;;;;;;;4.65;1.70;;;;;;;17.12;42.36;100860.66;5401221;26;20051;-53
2024/04/18 10:53:44;;;;;;;3.53;0.85;;;;;;;16.96;41.38;100860.88;5407213;26;20007;-49
2024/04/18 10:56:11;;;;;;;2.00;0.90;;;;;;;16.88;41.84;100857.53;5403776;26;20076;-54
2024/04/18 10:58:39;;;;;;;4.45;1.55;;;;;;;16.89;42.44;100855.78;5404707;26;20004;-47
2024/04/18 11:01:06;;;;;;;1.77;0.70;;;;;;;16.74;41.86;100859.50;5396457;26;20007;-55
2024/04/18 11:03:33;;;;;;;5.00;0.73;;;;;;;16.70;42.29;100846.47;5404933;26;20003;-53
2024/04/18 11:06:02;;;;;;;3.70;1.00;;;;;;;16.68;41.87;100861.31;5403561;26;20019;-45
2024/04/18 11:08:29;;;;;;;7.45;1.02;;;;;;;16.79;42.28;100847.22;5393961;26;20003;-48
2024/04/18 11:11:02;;;;;;;4.90;1.13;;;;;;;16.90;42.39;100845.31;5404514;26;20007;-52
2024/04/18 11:13:29;;;;;;;5.43;1.67;;;;;;;16.95;42.28;100853.94;5404387;26;20022;-48
2024/04/18 11:15:55;;;;;;;3.42;1.00;;;;;;;16.97;42.20;100846.06;5406326;26;20016;-49
2024/04/18 11:18:22;;;;;;;3.50;1.25;;;;;;;16.89;41.96;100838.31;5406426;26;20454;-47
2024/04/18 11:20:51;;;;;;;3.95;1.63;;;;;;;16.93;42.64;100833.91;5412989;26;20008;-47
2024/04/18 11:23:22;;;;;;;4.10;2.00;;;;;;;16.91;42.09;100839.16;5405871;26;20003;-47
2024/04/18 11:26:01;;;;;;;4.70;2.05;;;;;;;17.01;42.59;100833.78;5405880;26;20002;-51
2024/04/18 11:28:28;;;;;;;5.18;2.05;;;;;;;17.17;42.58;100824.81;5406331;26;20012;-49
2024/04/18 11:30:55;;;;;;;3.35;0.98;;;;;;;16.99;41.62;100828.56;5404048;26;20568;-56
2024/04/18 11:33:22;;;;;;;2.13;0.70;;;;;;;16.86;41.64;100832.28;5406955;26;20626;-53
2024/04/18 11:35:50;;;;;;;3.22;1.20;;;;;;;16.78;41.45;100829.78;5405676;26;20000;-54
2024/04/18 11:38:17;;;;;;;2.65;0.90;;;;;;;16.57;41.17;100824.00;5401923;26;20013;-52
2024/04/18 11:40:44;;;;;;;4.75;0.80;;;;;;;16.37;40.95;100813.84;5405424;26;20014;-51